Time;durP1;ratioP1;P1;durP2;ratioP2;P2;SDS_P1;SDS_P2;PMS_P1;PMS_P2;Temp;Humidity;BMP_temperature;BMP_pressure;BME280_temperature;BME280_humidity;BME280_pressure;Samples;Min_cycle;Max_cycle;Signal;HPM_P1;HPM_P2
2023/03/11 00:02:09;;;;;;;6.35;2.10;;;1.10;99.90;;;;;;5050228;28;20067;-66
2023/03/11 00:04:35;;;;;;;3.53;1.80;;;1.10;99.90;;;;;;5050077;28;20052;-66
2023/03/11 00:07:00;;;;;;;4.40;1.70;;;1.20;99.90;;;;;;5050260;28;20045;-67
2023/03/11 00:09:26;;;;;;;5.35;2.08;;;1.20;99.90;;;;;;5050124;28;20037;-66
2023/03/11 00:11:52;;;;;;;3.20;2.00;;;1.20;99.90;;;;;;5049844;28;20037;-66
2023/03/11 00:14:17;;;;;;;1.90;1.70;;;1.20;99.90;;;;;;5049604;28;20086;-66
2023/03/11 00:16:43;;;;;;;4.63;1.67;;;1.30;99.90;;;;;;5050171;28;20794;-66
2023/03/11 00:19:09;;;;;;;2.28;1.70;;;1.30;99.90;;;;;;5050042;28;20123;-66
2023/03/11 00:21:35;;;;;;;2.05;1.55;;;1.30;99.90;;;;;;5049644;28;20079;-66
2023/03/11 00:24:02;;;;;;;3.53;1.75;;;1.30;99.90;;;;;;5045031;28;20115;-66
2023/03/11 00:26:28;;;;;;;3.38;1.83;;;1.30;99.90;;;;;;5047358;28;20052;-66
2023/03/11 00:28:54;;;;;;;5.28;1.92;;;1.30;99.90;;;;;;5049715;28;20044;-66
2023/03/11 00:31:21;;;;;;;4.78;1.60;;;1.30;99.90;;;;;;5049748;28;20037;-66
2023/03/11 00:33:47;;;;;;;5.85;1.70;;;1.30;99.90;;;;;;5049756;28;20044;-66
2023/03/11 00:36:30;;;;;;;4.50;1.70;;;1.30;99.90;;;;;;5049755;28;20040;-66
2023/03/11 00:38:56;;;;;;;4.38;1.58;;;1.30;99.90;;;;;;5049687;28;20053;-66
2023/03/11 00:41:22;;;;;;;6.65;2.22;;;1.30;99.90;;;;;;5049661;28;20608;-66
2023/03/11 00:43:47;;;;;;;9.88;2.30;;;1.30;99.90;;;;;;5049403;28;20044;-66
2023/03/11 00:46:13;;;;;;;5.15;1.92;;;1.30;99.90;;;;;;5049738;28;20206;-66
2023/03/11 00:48:38;;;;;;;2.30;2.08;;;1.30;99.90;;;;;;5049552;28;20082;-66
2023/03/11 00:51:06;;;;;;;3.33;2.00;;;1.40;99.90;;;;;;5049505;28;20134;-66
2023/03/11 00:53:32;;;;;;;4.40;1.90;;;1.40;99.90;;;;;;5049387;28;20048;-66
2023/03/11 00:55:59;;;;;;;5.68;1.83;;;1.40;99.90;;;;;;5048986;28;20667;-66
2023/03/11 00:58:27;;;;;;;4.75;1.85;;;1.40;99.90;;;;;;5049347;28;20048;-66
2023/03/11 01:00:53;;;;;;;3.22;1.85;;;1.40;99.90;;;;;;5049140;28;20056;-66
2023/03/11 01:03:18;;;;;;;6.55;2.30;;;1.30;99.90;;;;;;5049138;28;20063;-66
2023/03/11 01:05:44;;;;;;;3.03;1.83;;;1.30;99.90;;;;;;5048724;28;20079;-66
2023/03/11 01:08:10;;;;;;;6.45;2.95;;;1.40;99.90;;;;;;5049172;28;20068;-66
2023/03/11 01:10:35;;;;;;;3.42;1.73;;;1.30;99.90;;;;;;5049210;28;20045;-66
2023/03/11 01:13:02;;;;;;;7.03;1.98;;;1.30;99.90;;;;;;5048757;28;20033;-66
2023/03/11 01:15:31;;;;;;;6.13;1.65;;;1.30;99.90;;;;;;5049003;28;20037;-66
2023/03/11 01:17:56;;;;;;;5.20;2.35;;;1.30;99.90;;;;;;5049250;28;20422;-66
2023/03/11 01:20:22;;;;;;;3.45;1.85;;;1.30;99.90;;;;;;5049307;28;20049;-66
2023/03/11 01:22:48;;;;;;;6.90;1.92;;;1.30;99.90;;;;;;5049304;28;20039;-66
2023/03/11 01:25:16;;;;;;;4.68;1.98;;;1.30;99.90;;;;;;5048807;28;20444;-66
2023/03/11 01:27:42;;;;;;;4.43;1.88;;;1.30;99.90;;;;;;5048575;28;20095;-66
2023/03/11 01:30:11;;;;;;;3.25;2.13;;;1.30;99.90;;;;;;5048836;28;20041;-66
2023/03/11 01:32:37;;;;;;;7.15;1.95;;;1.30;99.90;;;;;;5048099;28;20055;-66
2023/03/11 01:35:02;;;;;;;3.45;1.80;;;1.30;99.90;;;;;;5048394;28;20048;-66
2023/03/11 01:37:28;;;;;;;4.28;1.80;;;1.30;99.90;;;;;;5048584;28;20047;-66
2023/03/11 01:39:54;;;;;;;5.90;1.98;;;1.30;99.90;;;;;;5048631;28;20036;-66
2023/03/11 01:42:19;;;;;;;6.65;1.83;;;1.30;99.90;;;;;;5048287;28;20512;-66
2023/03/11 01:44:45;;;;;;;4.35;1.63;;;1.30;99.90;;;;;;5048196;28;20051;-66
2023/03/11 01:47:11;;;;;;;4.47;1.95;;;1.30;99.90;;;;;;5048435;28;20044;-66
2023/03/11 01:49:40;;;;;;;4.15;1.63;;;1.30;99.90;;;;;;5044908;28;20077;-66
2023/03/11 01:52:07;;;;;;;3.05;1.40;;;1.30;99.90;;;;;;5048078;28;20098;-66
2023/03/11 01:54:36;;;;;;;3.63;1.70;;;1.30;99.90;;;;;;5047872;28;20036;-66
2023/03/11 01:57:06;;;;;;;3.42;1.90;;;1.30;99.90;;;;;;5048255;28;20040;-66
2023/03/11 01:59:36;;;;;;;3.75;2.00;;;1.30;99.90;;;;;;5048247;28;20452;-66
2023/03/11 02:02:13;;;;;;;3.92;1.80;;;1.30;99.90;;;;;;5048395;28;20037;-66
2023/03/11 02:04:40;;;;;;;4.78;1.92;;;1.30;99.90;;;;;;5047872;28;20037;-66
2023/03/11 02:07:09;;;;;;;3.80;2.13;;;1.30;99.90;;;;;;5048168;28;20044;-66
2023/03/11 02:09:35;;;;;;;2.38;2.03;;;1.30;99.90;;;;;;5048299;28;20098;-66
2023/03/11 02:12:02;;;;;;;3.38;2.08;;;1.30;99.90;;;;;;5048051;28;20076;-66
2023/03/11 02:14:28;;;;;;;5.82;1.83;;;1.20;99.90;;;;;;5048159;28;20037;-66
2023/03/11 02:16:56;;;;;;;7.93;1.90;;;1.30;99.90;;;;;;5048288;28;20499;-66
2023/03/11 02:19:48;;;;;;;3.53;1.65;;;1.30;99.90;;;;;;5048161;28;20053;-66
2023/03/11 02:22:15;;;;;;;4.68;1.80;;;1.30;99.90;;;;;;5048243;28;20464;-66
2023/03/11 02:24:49;;;;;;;3.50;1.90;;;1.30;99.90;;;;;;5047832;28;20094;-66
2023/03/11 02:27:16;;;;;;;4.68;2.15;;;1.30;99.90;;;;;;5047819;28;20047;-66
2023/03/11 02:29:45;;;;;;;6.43;2.13;;;1.30;99.90;;;;;;5047967;28;20033;-66
2023/03/11 02:32:11;;;;;;;7.13;1.98;;;1.30;99.90;;;;;;5047838;28;20051;-66
2023/03/11 02:34:38;;;;;;;6.03;1.85;;;1.30;99.90;;;;;;5047921;28;20473;-66
2023/03/11 02:37:06;;;;;;;4.97;1.60;;;1.30;99.90;;;;;;5048078;28;20037;-66
2023/03/11 02:39:36;;;;;;;3.17;2.22;;;1.30;99.90;;;;;;5048408;28;20131;-66
2023/03/11 02:42:06;;;;;;;6.25;1.60;;;1.30;99.90;;;;;;5048393;28;20045;-66
2023/03/11 02:44:32;;;;;;;2.22;1.65;;;1.20;99.90;;;;;;5051513;28;20033;-66
2023/03/11 02:46:59;;;;;;;6.22;2.10;;;1.30;99.90;;;;;;5052100;28;20087;-66
2023/03/11 02:49:25;;;;;;;1.98;1.70;;;1.30;99.90;;;;;;5051859;28;20037;-66
2023/03/11 02:51:51;;;;;;;2.80;1.50;;;1.30;99.90;;;;;;5047579;28;20559;-65
2023/03/11 02:54:17;;;;;;;6.13;1.77;;;1.20;99.90;;;;;;5048788;28;20120;-66
2023/03/11 02:56:43;;;;;;;3.83;1.83;;;1.20;99.90;;;;;;5051585;28;20076;-66
2023/03/11 02:59:08;;;;;;;3.95;1.70;;;1.20;99.90;;;;;;5051791;28;20091;-66
2023/03/11 03:01:34;;;;;;;1.65;1.55;;;1.20;99.90;;;;;;5051667;28;20457;-66
2023/03/11 03:03:59;;;;;;;3.70;1.40;;;1.20;99.90;;;;;;5051428;28;20792;-66
2023/03/11 03:06:27;;;;;;;1.92;1.80;;;1.20;99.90;;;;;;5051893;28;20041;-66
2023/03/11 03:08:53;;;;;;;3.05;1.60;;;1.20;99.90;;;;;;5051759;28;20402;-66
2023/03/11 03:11:18;;;;;;;5.18;1.50;;;1.10;99.90;;;;;;5051484;28;20178;-66
2023/03/11 03:13:44;;;;;;;5.18;1.80;;;1.20;99.90;;;;;;5051457;28;20040;-66
2023/03/11 03:16:09;;;;;;;4.90;1.90;;;1.20;99.90;;;;;;5051465;28;20482;-66
2023/03/11 03:18:35;;;;;;;3.40;1.65;;;1.10;99.90;;;;;;5051169;28;20059;-66
2023/03/11 03:21:01;;;;;;;1.67;1.58;;;1.10;99.90;;;;;;5051398;28;20041;-66
2023/03/11 03:23:28;;;;;;;2.83;1.48;;;1.00;99.90;;;;;;5051330;28;20055;-66
2023/03/11 03:25:53;;;;;;;2.35;1.73;;;1.00;99.90;;;;;;5049627;28;20127;-66
2023/03/11 03:28:19;;;;;;;3.72;1.90;;;1.00;99.90;;;;;;5050986;28;20049;-66
2023/03/11 03:30:45;;;;;;;1.58;1.45;;;0.90;99.90;;;;;;5051223;28;20041;-66
2023/03/11 03:33:11;;;;;;;1.65;1.40;;;0.90;99.90;;;;;;5051189;28;20056;-66
2023/03/11 03:35:42;;;;;;;1.40;1.30;;;0.90;99.90;;;;;;5050861;28;20037;-65
2023/03/11 03:38:08;;;;;;;1.90;1.80;;;0.80;99.90;;;;;;5050909;28;20484;-66
2023/03/11 03:40:33;;;;;;;3.85;1.38;;;0.80;99.90;;;;;;5051147;28;20073;-66
2023/03/11 03:42:59;;;;;;;3.35;1.48;;;0.70;99.90;;;;;;5050957;28;20130;-66
2023/03/11 03:45:24;;;;;;;2.40;2.05;;;0.60;99.90;;;;;;5050835;28;20049;-65
2023/03/11 03:47:50;;;;;;;5.63;1.63;;;0.60;99.90;;;;;;5050887;28;20040;-66
2023/03/11 03:50:16;;;;;;;2.45;1.73;;;0.60;99.90;;;;;;5049352;28;20080;-66
2023/03/11 03:52:41;;;;;;;2.78;1.30;;;0.60;99.90;;;;;;5051021;28;20051;-66
2023/03/11 03:55:07;;;;;;;7.25;1.85;;;0.60;99.90;;;;;;5049911;28;20116;-66
2023/03/11 03:57:33;;;;;;;4.97;1.55;;;0.60;99.90;;;;;;5050853;28;20033;-66
2023/03/11 03:59:58;;;;;;;1.85;1.67;;;0.60;99.90;;;;;;5050524;28;20048;-66
2023/03/11 04:02:24;;;;;;;2.95;1.50;;;0.60;99.90;;;;;;5050404;28;20051;-66
2023/03/11 04:04:50;;;;;;;1.67;1.58;;;0.60;99.90;;;;;;5050258;28;20052;-66
2023/03/11 04:07:15;;;;;;;2.75;1.75;;;0.60;99.90;;;;;;5050483;28;20052;-66
2023/03/11 04:09:43;;;;;;;3.10;1.58;;;0.50;99.90;;;;;;5050383;28;20769;-65
2023/03/11 04:12:16;;;;;;;4.22;1.63;;;0.50;99.90;;;;;;5050277;28;20035;-66
2023/03/11 04:14:43;;;;;;;4.28;2.03;;;0.50;99.90;;;;;;5050287;28;20041;-66
2023/03/11 04:17:11;;;;;;;4.25;1.80;;;0.50;99.90;;;;;;5050372;28;20090;-66
2023/03/11 04:19:37;;;;;;;3.70;2.05;;;0.40;99.90;;;;;;5050285;28;20045;-66
2023/03/11 04:22:03;;;;;;;4.55;1.80;;;0.40;99.90;;;;;;5050063;28;20044;-66
2023/03/11 04:24:28;;;;;;;6.18;2.10;;;0.30;99.90;;;;;;5049769;28;20049;-66
2023/03/11 04:26:54;;;;;;;2.55;1.65;;;0.30;99.90;;;;;;5050065;28;20090;-66
2023/03/11 04:29:20;;;;;;;3.92;1.48;;;0.40;99.90;;;;;;5049456;28;20770;-66
2023/03/11 04:31:46;;;;;;;3.17;1.85;;;0.30;99.90;;;;;;5050031;28;20045;-66
2023/03/11 04:34:11;;;;;;;1.85;1.60;;;0.40;99.90;;;;;;5049772;28;20453;-66
2023/03/11 04:36:37;;;;;;;1.70;1.40;;;0.30;99.90;;;;;;5049884;28;20041;-66
2023/03/11 04:39:02;;;;;;;2.95;2.22;;;0.30;99.90;;;;;;5049927;28;20071;-66
2023/03/11 04:41:28;;;;;;;1.60;1.50;;;0.30;99.90;;;;;;5049891;28;20037;-66
2023/03/11 04:43:53;;;;;;;2.53;1.55;;;0.30;99.90;;;;;;5049389;28;20049;-67
2023/03/11 04:46:19;;;;;;;5.25;1.55;;;0.30;99.90;;;;;;5049919;28;20111;-66
2023/03/11 04:48:45;;;;;;;3.72;1.80;;;0.20;99.90;;;;;;5049718;28;20095;-66
2023/03/11 04:51:10;;;;;;;1.95;1.38;;;0.10;99.90;;;;;;5049937;28;20041;-66
2023/03/11 04:53:36;;;;;;;2.63;1.52;;;0.10;99.90;;;;;;5049663;28;20040;-66
2023/03/11 04:56:01;;;;;;;4.63;1.90;;;0.10;99.90;;;;;;5049309;28;20426;-66
2023/03/11 04:58:27;;;;;;;4.00;1.67;;;0.00;99.90;;;;;;5049596;28;20045;-66
2023/03/11 05:00:53;;;;;;;4.65;1.90;;;0.10;99.90;;;;;;5049481;28;20544;-66
2023/03/11 05:03:18;;;;;;;6.32;2.03;;;0.10;99.90;;;;;;5048161;28;20121;-66
2023/03/11 05:05:44;;;;;;;2.08;1.63;;;0.10;99.90;;;;;;5048987;28;20486;-66
2023/03/11 05:08:10;;;;;;;3.60;1.70;;;0.10;99.90;;;;;;5048465;28;20060;-66
2023/03/11 05:10:35;;;;;;;3.92;2.03;;;0.10;99.90;;;;;;5049162;28;20122;-66
2023/03/11 05:13:01;;;;;;;3.17;1.75;;;0.10;99.90;;;;;;5047699;28;20417;-66
2023/03/11 05:15:29;;;;;;;1.70;1.60;;;0.10;99.90;;;;;;5049075;28;20114;-66
2023/03/11 05:17:55;;;;;;;2.78;1.75;;;0.00;99.90;;;;;;5049137;28;20194;-66
2023/03/11 05:20:20;;;;;;;5.75;2.17;;;0.00;99.90;;;;;;5049207;28;20087;-66
2023/03/11 05:22:46;;;;;;;2.00;1.83;;;0.00;99.90;;;;;;5049282;28;20063;-66
2023/03/11 05:25:11;;;;;;;3.00;1.40;;;0.00;99.90;;;;;;5049053;28;20037;-66
2023/03/11 05:27:37;;;;;;;5.47;1.55;;;-0.10;99.90;;;;;;5048854;28;20040;-66
2023/03/11 05:30:03;;;;;;;4.93;1.63;;;-0.10;99.90;;;;;;5049091;28;20140;-66
2023/03/11 05:32:29;;;;;;;6.75;1.80;;;-0.20;99.90;;;;;;5049099;28;20037;-66
2023/03/11 05:34:54;;;;;;;5.40;2.10;;;-0.20;99.90;;;;;;5048920;28;20105;-66
2023/03/11 05:37:20;;;;;;;1.67;1.58;;;-0.30;99.90;;;;;;5049018;28;20418;-65
2023/03/11 05:39:46;;;;;;;2.65;2.05;;;-0.30;99.90;;;;;;5049217;28;20083;-65
2023/03/11 05:42:11;;;;;;;2.42;1.77;;;-0.30;99.90;;;;;;5049014;28;20048;-65
2023/03/11 05:44:37;;;;;;;2.95;1.80;;;-0.30;99.90;;;;;;5048479;28;20052;-66
2023/03/11 05:47:02;;;;;;;3.47;1.80;;;-0.40;99.90;;;;;;5047414;28;20037;-66
2023/03/11 05:49:28;;;;;;;11.90;1.90;;;-0.40;99.90;;;;;;5046627;28;20847;-66
2023/03/11 05:51:54;;;;;;;3.40;1.98;;;-0.40;99.90;;;;;;5048417;28;20045;-66
2023/03/11 05:54:19;;;;;;;3.03;1.80;;;-0.40;99.90;;;;;;5048079;28;20045;-66
2023/03/11 05:56:46;;;;;;;5.15;2.40;;;-0.40;99.90;;;;;;5048425;28;20413;-66
2023/03/11 05:59:13;;;;;;;3.45;2.00;;;-0.40;99.90;;;;;;5048497;28;20041;-66
2023/03/11 06:01:39;;;;;;;4.97;2.10;;;-0.40;99.90;;;;;;5048768;28;20106;-66
2023/03/11 06:04:06;;;;;;;7.32;2.20;;;-0.50;99.90;;;;;;5047978;28;20059;-66
2023/03/11 06:06:31;;;;;;;6.28;2.15;;;-0.50;99.90;;;;;;5048527;28;20041;-66
2023/03/11 06:08:57;;;;;;;5.47;1.98;;;-0.40;99.90;;;;;;5047981;28;20124;-65
2023/03/11 06:11:24;;;;;;;2.97;1.95;;;-0.50;99.90;;;;;;5048099;28;20511;-66
2023/03/11 06:13:53;;;;;;;5.47;2.05;;;-0.50;99.90;;;;;;5045720;28;20055;-66
2023/03/11 06:16:19;;;;;;;2.33;1.95;;;-0.50;99.90;;;;;;5046924;28;20041;-66
2023/03/11 06:18:45;;;;;;;4.03;2.20;;;-0.60;99.90;;;;;;5047228;28;20103;-66
2023/03/11 06:21:22;;;;;;;3.33;1.92;;;-0.60;99.90;;;;;;5048164;28;20452;-66
2023/03/11 06:23:49;;;;;;;3.38;2.00;;;-0.60;99.90;;;;;;5047970;28;20045;-66
2023/03/11 06:26:17;;;;;;;2.03;1.92;;;-0.50;99.90;;;;;;5048232;28;20041;-66
2023/03/11 06:28:44;;;;;;;2.95;2.10;;;-0.50;99.90;;;;;;5048003;28;20040;-65
2023/03/11 06:31:18;;;;;;;2.38;1.90;;;-0.60;99.90;;;;;;5048281;28;20049;-65
2023/03/11 06:33:45;;;;;;;3.85;2.65;;;-0.50;99.90;;;;;;5057731;28;20048;-66
2023/03/11 06:36:13;;;;;;;6.65;3.83;;;-0.50;99.90;;;;;;5067990;28;20041;-66
2023/03/11 06:38:38;;;;;;;3.88;3.53;;;-0.50;99.90;;;;;;5068147;28;20041;-66
2023/03/11 06:41:05;;;;;;;7.80;3.55;;;-0.50;99.90;;;;;;5068089;28;20044;-66
2023/03/11 06:43:32;;;;;;;7.53;3.65;;;-0.50;99.90;;;;;;5068270;28;20072;-66
2023/03/11 06:45:58;;;;;;;6.75;3.05;;;-0.50;99.90;;;;;;5068014;28;20040;-66
2023/03/11 06:48:24;;;;;;;5.75;4.03;;;-0.40;99.90;;;;;;5068152;28;20499;-66
2023/03/11 06:50:58;;;;;;;8.48;5.85;;;-0.40;99.90;;;;;;5067838;28;20044;-66
2023/03/11 06:53:24;;;;;;;8.18;5.45;;;-0.30;99.90;;;;;;5067953;28;20040;-66
2023/03/11 06:56:01;;;;;;;5.53;4.95;;;-0.30;99.90;;;;;;5067817;28;20341;-66
2023/03/11 06:58:27;;;;;;;10.35;5.03;;;-0.20;99.90;;;;;;5067595;28;20048;-66
2023/03/11 07:00:53;;;;;;;7.13;4.97;;;-0.20;99.90;;;;;;5068184;28;20055;-66
2023/03/11 07:03:18;;;;;;;7.97;3.92;;;-0.10;99.90;;;;;;5067912;28;20048;-66
2023/03/11 07:05:44;;;;;;;3.17;2.58;;;0.00;99.90;;;;;;5067606;28;20045;-66
2023/03/11 07:08:10;;;;;;;4.85;2.83;;;0.00;99.90;;;;;;5067795;28;20501;-67
2023/03/11 07:10:36;;;;;;;3.00;2.38;;;0.00;99.90;;;;;;5067778;28;20041;-67
2023/03/11 07:13:01;;;;;;;2.17;1.75;;;0.10;99.90;;;;;;5067543;28;20044;-66
2023/03/11 07:15:27;;;;;;;3.47;1.95;;;0.20;99.90;;;;;;5067611;28;20036;-66
2023/03/11 07:17:52;;;;;;;3.70;1.98;;;0.20;99.90;;;;;;5067689;28;20119;-66
2023/03/11 07:20:18;;;;;;;2.47;2.08;;;0.30;99.90;;;;;;5067942;28;20151;-67
2023/03/11 07:22:44;;;;;;;2.95;2.10;;;0.30;99.90;;;;;;5067511;28;20044;-67
2023/03/11 07:25:09;;;;;;;9.18;2.67;;;0.40;99.90;;;;;;5067323;28;20036;-67
2023/03/11 07:27:35;;;;;;;4.60;2.17;;;0.40;99.90;;;;;;5067318;28;20413;-67
2023/03/11 07:30:01;;;;;;;7.63;1.67;;;0.50;99.90;;;;;;5068238;28;20083;-67
2023/03/11 07:32:27;;;;;;;7.60;1.95;;;0.50;99.90;;;;;;5070834;28;20431;-67
2023/03/11 07:34:52;;;;;;;2.70;1.80;;;0.50;99.90;;;;;;5070868;28;20047;-66
2023/03/11 07:37:18;;;;;;;2.20;1.60;;;0.50;99.90;;;;;;5071159;28;20491;-67
2023/03/11 07:39:44;;;;;;;3.88;2.00;;;0.60;99.90;;;;;;5071129;28;20080;-67
2023/03/11 07:42:09;;;;;;;9.60;1.90;;;0.70;99.90;;;;;;5070961;28;20435;-67
2023/03/11 07:44:35;;;;;;;4.00;1.85;;;0.70;99.90;;;;;;5070805;28;20592;-66
2023/03/11 07:47:05;;;;;;;2.33;1.90;;;0.70;99.90;;;;;;5070669;28;20040;-67
2023/03/11 07:49:31;;;;;;;3.35;1.90;;;0.80;99.90;;;;;;5070881;28;20041;-67
2023/03/11 07:51:57;;;;;;;5.20;2.00;;;0.80;99.90;;;;;;5070808;28;20040;-67
2023/03/11 07:54:22;;;;;;;5.97;1.83;;;0.80;99.90;;;;;;5070525;28;20408;-67
2023/03/11 07:56:48;;;;;;;7.55;2.25;;;0.90;99.90;;;;;;5070511;28;20504;-67
2023/03/11 07:59:14;;;;;;;4.20;2.20;;;0.90;99.90;;;;;;5070488;28;20417;-67
2023/03/11 08:01:40;;;;;;;6.55;2.00;;;0.90;99.90;;;;;;5070283;28;20148;-67
2023/03/11 08:04:10;;;;;;;2.40;2.20;;;0.90;99.90;;;;;;5070235;28;20048;-68
2023/03/11 08:06:37;;;;;;;2.28;2.00;;;1.00;99.90;;;;;;5070472;28;20036;-67
2023/03/11 08:09:06;;;;;;;3.03;2.20;;;1.00;99.90;;;;;;5070370;28;20166;-66
2023/03/11 08:11:32;;;;;;;5.35;2.05;;;1.10;99.90;;;;;;5068718;28;20044;-66
2023/03/11 08:13:58;;;;;;;3.85;2.05;;;1.10;99.90;;;;;;5053807;28;20044;-66
2023/03/11 08:16:24;;;;;;;5.30;2.60;;;1.20;99.90;;;;;;5049580;28;20041;-66
2023/03/11 08:18:51;;;;;;;4.38;2.20;;;1.20;99.90;;;;;;5047936;28;20071;-67
2023/03/11 08:21:21;;;;;;;5.93;1.70;;;1.30;99.90;;;;;;5050362;28;20041;-66
2023/03/11 08:23:46;;;;;;;5.45;2.63;;;1.30;99.90;;;;;;5049641;28;20171;-66
2023/03/11 08:26:14;;;;;;;6.85;2.45;;;1.40;99.90;;;;;;5050162;28;20128;-66
2023/03/11 08:28:40;;;;;;;3.72;2.22;;;1.40;99.90;;;;;;5049784;28;20049;-67
2023/03/11 08:31:13;;;;;;;4.45;2.65;;;1.40;99.90;;;;;;5050082;28;20090;-67
2023/03/11 08:33:39;;;;;;;;;;;1.40;99.90;;;;;;5050450;28;20755;-68
2023/03/11 08:36:04;;;;;;;4.93;2.03;;;1.50;99.90;;;;;;5049778;28;19931;-67
2023/03/11 08:38:30;;;;;;;11.57;2.60;;;1.50;99.90;;;;;;5048535;28;20809;-66
2023/03/11 08:40:56;;;;;;;7.63;3.58;;;1.60;99.90;;;;;;5049376;28;20045;-66
2023/03/11 08:43:21;;;;;;;5.55;2.38;;;1.60;99.90;;;;;;5049574;28;20039;-66
2023/03/11 08:45:47;;;;;;;5.40;2.13;;;1.60;99.90;;;;;;5049246;28;20049;-67
2023/03/11 08:48:12;;;;;;;4.72;1.88;;;1.70;99.90;;;;;;5048346;28;20052;-67
2023/03/11 08:50:42;;;;;;;5.57;2.22;;;1.70;99.90;;;;;;5049655;28;20047;-67
2023/03/11 08:53:08;;;;;;;7.57;2.17;;;1.70;99.90;;;;;;5049427;28;20041;-66
2023/03/11 08:55:34;;;;;;;5.10;2.20;;;1.70;99.90;;;;;;5048966;28;20166;-67
2023/03/11 08:58:00;;;;;;;4.18;1.80;;;1.80;99.90;;;;;;5047715;28;20080;-67
2023/03/11 09:00:26;;;;;;;4.82;2.30;;;1.80;99.90;;;;;;5049076;28;20515;-66
2023/03/11 09:02:52;;;;;;;4.47;2.20;;;1.90;99.90;;;;;;5049301;28;20036;-67
2023/03/11 09:05:18;;;;;;;2.83;2.28;;;1.90;99.90;;;;;;5048903;28;20080;-67
2023/03/11 09:07:44;;;;;;;4.47;1.55;;;1.90;99.90;;;;;;5049354;28;20124;-67
2023/03/11 09:10:13;;;;;;;3.90;1.60;;;1.90;99.90;;;;;;5047538;28;20045;-67
2023/03/11 09:12:39;;;;;;;2.00;1.60;;;2.00;99.90;;;;;;5048775;28;20051;-67
2023/03/11 09:15:05;;;;;;;3.35;1.67;;;2.00;99.90;;;;;;5048861;28;20045;-68
2023/03/11 09:17:31;;;;;;;3.95;1.80;;;2.00;99.90;;;;;;5048987;28;20094;-67
2023/03/11 09:19:57;;;;;;;5.30;1.77;;;2.00;99.90;;;;;;5048820;28;20049;-67
2023/03/11 09:22:22;;;;;;;3.20;1.70;;;2.10;99.90;;;;;;5049019;28;20045;-67
2023/03/11 09:24:48;;;;;;;4.00;1.75;;;2.10;99.90;;;;;;5048383;28;20062;-67
2023/03/11 09:27:14;;;;;;;3.63;1.75;;;2.20;99.90;;;;;;5048734;28;20048;-67
2023/03/11 09:29:40;;;;;;;4.13;2.03;;;2.20;99.90;;;;;;5048739;28;20519;-67
2023/03/11 09:32:06;;;;;;;5.60;1.98;;;2.20;99.90;;;;;;5048523;28;20040;-67
2023/03/11 09:34:32;;;;;;;2.55;1.30;;;2.30;99.90;;;;;;5048323;28;20480;-67
2023/03/11 09:36:57;;;;;;;6.43;2.40;;;2.30;99.90;;;;;;5048786;28;20086;-67
2023/03/11 09:39:23;;;;;;;6.32;2.88;;;2.30;99.90;;;;;;5048405;28;20664;-67
2023/03/11 09:41:53;;;;;;;4.13;1.92;;;2.40;99.90;;;;;;5048361;28;20044;-67
2023/03/11 09:45:01;;;;;;;2.65;1.75;;;2.40;99.90;;;;;;5048300;28;20052;-67
2023/03/11 09:47:34;;;;;;;2.45;2.03;;;2.40;99.90;;;;;;5046171;28;20099;-67
2023/03/11 09:50:19;;;;;;;6.75;2.13;;;2.50;99.90;;;;;;5041723;28;20048;-67
2023/03/11 09:53:14;;;;;;;10.85;2.35;;;2.60;99.90;;;;;;5046667;28;20037;-67
2023/03/11 09:55:52;;;;;;;4.75;2.20;;;2.60;99.90;;;;;;5045169;28;20497;-67
2023/03/11 09:58:46;;;;;;;3.60;1.45;;;2.60;99.90;;;;;;5048529;28;20486;-67
2023/03/11 10:01:17;;;;;;;5.35;1.80;;;2.70;99.90;;;;;;5045151;28;20047;-67
2023/03/11 10:03:44;;;;;;;3.70;1.83;;;2.70;99.90;;;;;;5048130;28;20086;-67
2023/03/11 10:06:16;;;;;;;7.75;1.70;;;2.80;99.90;;;;;;5048249;28;20037;-67
2023/03/11 10:09:09;;;;;;;3.17;2.15;;;2.80;99.90;;;;;;5046619;28;20033;-67
2023/03/11 10:11:45;;;;;;;3.85;1.80;;;2.80;99.90;;;;;;5038935;28;20041;-67
2023/03/11 10:14:42;;;;;;;8.45;1.88;;;2.70;99.90;;;;;;5037275;28;20037;-66
2023/03/11 10:17:39;;;;;;;9.38;2.13;;;2.80;99.90;;;;;;5035748;28;20040;-66
2023/03/11 10:20:12;;;;;;;4.55;1.60;;;2.90;99.90;;;;;;5048710;28;20049;-66
2023/03/11 10:22:54;;;;;;;3.38;1.45;;;2.90;99.90;;;;;;5051392;28;20041;-67
2023/03/11 10:25:50;;;;;;;3.08;1.52;;;3.00;99.90;;;;;;5046902;28;20540;-66
2023/03/11 10:28:19;;;;;;;5.80;2.00;;;3.10;99.90;;;;;;5042716;28;20075;-67
2023/03/11 10:30:50;;;;;;;5.22;1.85;;;3.10;99.90;;;;;;5047561;28;20037;-67
2023/03/11 10:33:42;;;;;;;1.63;1.50;;;3.10;99.90;;;;;;5043578;28;20072;-67
2023/03/11 10:36:23;;;;;;;4.25;1.60;;;3.10;99.90;;;;;;5042199;28;20037;-67
2023/03/11 10:38:51;;;;;;;3.80;1.65;;;3.10;99.90;;;;;;5041805;28;20771;-67
2023/03/11 10:41:16;;;;;;;2.58;1.70;;;3.20;99.90;;;;;;5047475;28;20084;-67
2023/03/11 10:44:04;;;;;;;3.72;1.80;;;3.20;99.90;;;;;;5047031;28;20408;-67
2023/03/11 10:46:30;;;;;;;5.80;1.45;;;3.30;99.90;;;;;;5047312;28;20045;-67
2023/03/11 10:48:56;;;;;;;3.20;2.00;;;3.30;99.90;;;;;;5047285;28;20093;-67
2023/03/11 10:51:25;;;;;;;6.22;1.73;;;3.30;99.90;;;;;;5044167;28;20061;-67
2023/03/11 10:53:59;;;;;;;2.35;1.90;;;3.40;99.90;;;;;;5065108;28;20036;-67
2023/03/11 10:56:28;;;;;;;5.78;2.03;;;3.40;99.90;;;;;;5067775;28;20083;-67
2023/03/11 10:58:54;;;;;;;8.18;2.38;;;3.50;99.90;;;;;;5066113;28;20055;-68
2023/03/11 11:01:20;;;;;;;3.83;2.05;;;3.50;99.90;;;;;;5067716;28;20115;-67
2023/03/11 11:03:48;;;;;;;6.35;2.45;;;3.50;99.90;;;;;;5067450;28;20102;-67
2023/03/11 11:06:32;;;;;;;4.47;1.75;;;3.50;99.90;;;;;;5070013;28;20044;-67
2023/03/11 11:09:20;;;;;;;8.10;1.88;;;3.60;99.90;;;;;;5071292;28;20367;-67
2023/03/11 11:12:17;;;;;;;6.22;1.63;;;3.60;99.90;;;;;;5071177;28;20087;-67
2023/03/11 11:14:51;;;;;;;4.30;2.03;;;3.60;99.90;;;;;;5068328;28;20106;-67
2023/03/11 11:17:23;;;;;;;9.52;1.92;;;3.70;99.90;;;;;;5071046;28;20043;-67
2023/03/11 11:19:51;;;;;;;3.22;1.92;;;3.60;99.90;;;;;;5071157;28;20048;-69
2023/03/11 11:22:19;;;;;;;4.18;1.83;;;3.60;99.90;;;;;;5071171;28;20044;-68
2023/03/11 11:24:47;;;;;;;2.45;1.70;;;3.70;99.90;;;;;;5070780;28;20515;-67
2023/03/11 11:27:28;;;;;;;4.60;1.58;;;3.80;99.90;;;;;;5042332;28;20041;-67
2023/03/11 11:30:23;;;;;;;4.80;1.70;;;3.90;99.90;;;;;;5043431;28;20041;-67
2023/03/11 11:32:52;;;;;;;4.72;1.85;;;3.90;99.90;;;;;;5000426;28;20183;-67
2023/03/11 11:35:19;;;;;;;8.43;1.70;;;4.10;99.90;;;;;;5008075;28;20049;-68
2023/03/11 11:38:01;;;;;;;3.53;1.55;;;4.10;99.90;;;;;;5007674;28;20629;-67
2023/03/11 11:40:30;;;;;;;1.97;1.77;;;4.20;99.90;;;;;;5008308;28;20618;-68
2023/03/11 11:43:18;;;;;;;1.65;1.15;;;4.20;99.90;;;;;;5012568;28;20061;-67
2023/03/11 11:45:56;;;;;;;8.38;1.33;;;4.10;99.90;;;;;;5007309;28;20060;-66
2023/03/11 11:48:46;;;;;;;3.22;1.50;;;4.20;99.90;;;;;;5026416;28;20057;-67
2023/03/11 11:51:23;;;;;;;2.00;1.70;;;4.20;99.90;;;;;;5027933;28;20107;-67
2023/03/11 11:53:54;;;;;;;2.33;1.70;;;4.20;99.90;;;;;;5017240;28;20042;-67
2023/03/11 11:56:24;;;;;;;4.10;1.98;;;4.20;99.90;;;;;;5007951;28;20054;-66
2023/03/11 11:58:49;;;;;;;4.07;1.63;;;4.20;99.90;;;;;;5007840;28;20072;-67
2023/03/11 12:01:30;;;;;;;2.03;1.52;;;4.20;99.90;;;;;;5007870;28;20042;-67
2023/03/11 12:04:07;;;;;;;6.22;1.02;;;4.20;99.90;;;;;;5007251;28;20062;-67
2023/03/11 12:06:48;;;;;;;3.42;1.20;;;4.10;99.90;;;;;;4991289;28;20423;-67
2023/03/11 12:09:54;;;;;;;5.70;1.40;;;4.20;99.90;;;;;;5039901;28;20052;-67
2023/03/11 12:12:25;;;;;;;5.45;1.30;;;4.20;99.90;;;;;;5069886;28;20143;-67
2023/03/11 12:15:09;;;;;;;1.87;1.30;;;4.30;99.90;;;;;;5069812;28;20036;-67
2023/03/11 12:17:38;;;;;;;2.38;1.00;;;4.40;99.90;;;;;;5069496;28;20040;-67
2023/03/11 12:20:35;;;;;;;4.20;1.10;;;4.30;99.90;;;;;;5061104;28;20123;-66
2023/03/11 12:23:15;;;;;;;4.85;1.73;;;4.30;99.90;;;;;;5044884;28;20041;-68
2023/03/11 12:26:03;;;;;;;4.20;1.40;;;4.30;99.90;;;;;;5040134;28;20421;-67
2023/03/11 12:28:38;;;;;;;4.90;1.20;;;4.40;99.90;;;;;;5037342;28;20073;-67
2023/03/11 12:31:08;;;;;;;5.25;1.60;;;4.40;99.90;;;;;;5041267;28;20037;-68
2023/03/11 12:33:44;;;;;;;4.75;1.95;;;4.40;99.90;;;;;;5049845;28;20043;-68
2023/03/11 12:36:31;;;;;;;4.40;1.67;;;4.40;99.90;;;;;;5049964;28;20041;-68
2023/03/11 12:38:58;;;;;;;4.22;1.10;;;4.50;99.90;;;;;;5047699;28;20091;-68
2023/03/11 12:41:38;;;;;;;2.22;1.30;;;4.50;99.90;;;;;;5039851;28;20119;-68
2023/03/11 12:44:16;;;;;;;2.95;1.40;;;4.40;99.90;;;;;;5036397;28;20037;-69
2023/03/11 12:46:54;;;;;;;2.33;1.30;;;4.50;99.90;;;;;;5043287;28;20036;-69
2023/03/11 12:49:23;;;;;;;2.20;1.23;;;4.50;99.90;;;;;;5028829;28;20123;-68
2023/03/11 12:52:07;;;;;;;3.97;2.20;;;4.40;99.90;;;;;;5038113;28;20045;-68
2023/03/11 12:54:34;;;;;;;5.25;2.05;;;4.50;99.90;;;;;;5031169;28;20405;-67
2023/03/11 12:57:21;;;;;;;3.40;1.10;;;4.50;99.90;;;;;;5042440;28;20076;-67
2023/03/11 13:00:10;;;;;;;2.22;1.33;;;4.50;99.90;;;;;;4998178;28;20045;-67
2023/03/11 13:02:51;;;;;;;5.20;1.20;;;4.60;99.90;;;;;;5028979;28;20041;-67
2023/03/11 13:05:22;;;;;;;2.65;1.10;;;4.60;99.90;;;;;;5029061;28;20033;-67
2023/03/11 13:07:59;;;;;;;3.20;0.98;;;4.60;99.90;;;;;;5029131;28;20533;-67